sensor_id;sensor_type;location;lat;lon;timestamp;P1;durP1;ratioP1;P2;durP2;ratioP2
28078;SDS011;15388;42.238;24.684;2023-02-22T00:00:28;8.35;;;4.35;;
28078;SDS011;15388;42.238;24.684;2023-02-22T00:03:15;9.85;;;4.22;;
28078;SDS011;15388;42.238;24.684;2023-02-22T00:05:41;6.18;;;3.85;;
28078;SDS011;15388;42.238;24.684;2023-02-22T00:08:11;6.00;;;4.03;;
28078;SDS011;15388;42.238;24.684;2023-02-22T00:10:37;7.75;;;3.58;;
28078;SDS011;15388;42.238;24.684;2023-02-22T00:13:04;5.63;;;3.83;;
28078;SDS011;15388;42.238;24.684;2023-02-22T00:15:31;7.03;;;3.47;;
28078;SDS011;15388;42.238;24.684;2023-02-22T00:17:57;9.10;;;5.20;;
28078;SDS011;15388;42.238;24.684;2023-02-22T00:20:23;7.90;;;4.15;;
28078;SDS011;15388;42.238;24.684;2023-02-22T00:22:48;9.05;;;4.15;;
28078;SDS011;15388;42.238;24.684;2023-02-22T00:25:16;6.90;;;4.65;;
28078;SDS011;15388;42.238;24.684;2023-02-22T00:27:43;6.05;;;3.90;;
28078;SDS011;15388;42.238;24.684;2023-02-22T00:30:09;7.20;;;3.90;;
28078;SDS011;15388;42.238;24.684;2023-02-22T00:32:37;6.82;;;3.55;;
28078;SDS011;15388;42.238;24.684;2023-02-22T00:35:02;6.22;;;3.58;;
28078;SDS011;15388;42.238;24.684;2023-02-22T00:37:32;5.20;;;3.45;;
28078;SDS011;15388;42.238;24.684;2023-02-22T00:39:59;10.35;;;4.82;;
28078;SDS011;15388;42.238;24.684;2023-02-22T00:42:25;6.28;;;3.63;;
28078;SDS011;15388;42.238;24.684;2023-02-22T00:44:50;9.55;;;3.83;;
28078;SDS011;15388;42.238;24.684;2023-02-22T00:47:15;7.30;;;3.78;;
28078;SDS011;15388;42.238;24.684;2023-02-22T00:49:40;8.38;;;5.55;;
28078;SDS011;15388;42.238;24.684;2023-02-22T00:52:05;7.15;;;3.65;;
28078;SDS011;15388;42.238;24.684;2023-02-22T00:54:31;8.60;;;4.07;;
28078;SDS011;15388;42.238;24.684;2023-02-22T00:56:57;7.28;;;3.72;;
28078;SDS011;15388;42.238;24.684;2023-02-22T00:59:22;8.40;;;4.03;;
28078;SDS011;15388;42.238;24.684;2023-02-22T01:01:47;8.18;;;5.13;;
28078;SDS011;15388;42.238;24.684;2023-02-22T01:04:12;8.82;;;5.00;;
28078;SDS011;15388;42.238;24.684;2023-02-22T01:06:38;7.18;;;3.70;;
28078;SDS011;15388;42.238;24.684;2023-02-22T01:09:03;8.02;;;4.15;;
28078;SDS011;15388;42.238;24.684;2023-02-22T01:11:28;7.03;;;3.53;;
28078;SDS011;15388;42.238;24.684;2023-02-22T01:13:54;6.38;;;4.03;;
28078;SDS011;15388;42.238;24.684;2023-02-22T01:16:21;8.40;;;3.40;;
28078;SDS011;15388;42.238;24.684;2023-02-22T01:18:46;7.50;;;3.78;;
28078;SDS011;15388;42.238;24.684;2023-02-22T01:21:12;7.43;;;4.47;;
28078;SDS011;15388;42.238;24.684;2023-02-22T01:23:37;6.80;;;2.97;;
28078;SDS011;15388;42.238;24.684;2023-02-22T01:26:02;8.07;;;2.70;;
28078;SDS011;15388;42.238;24.684;2023-02-22T01:28:30;6.25;;;3.63;;
28078;SDS011;15388;42.238;24.684;2023-02-22T01:30:55;6.90;;;3.67;;
28078;SDS011;15388;42.238;24.684;2023-02-22T01:33:20;4.55;;;2.63;;
28078;SDS011;15388;42.238;24.684;2023-02-22T01:35:46;7.18;;;3.40;;
28078;SDS011;15388;42.238;24.684;2023-02-22T01:38:11;8.25;;;3.65;;
28078;SDS011;15388;42.238;24.684;2023-02-22T01:40:39;9.33;;;4.93;;
28078;SDS011;15388;42.238;24.684;2023-02-22T01:45:57;12.93;;;4.57;;
28078;SDS011;15388;42.238;24.684;2023-02-22T01:50:51;7.90;;;3.85;;
28078;SDS011;15388;42.238;24.684;2023-02-22T01:53:19;5.65;;;3.75;;
28078;SDS011;15388;42.238;24.684;2023-02-22T01:58:11;8.63;;;4.23;;
28078;SDS011;15388;42.238;24.684;2023-02-22T02:00:37;9.07;;;5.13;;
28078;SDS011;15388;42.238;24.684;2023-02-22T02:03:09;10.02;;;4.72;;
28078;SDS011;15388;42.238;24.684;2023-02-22T02:05:35;8.15;;;4.97;;
28078;SDS011;15388;42.238;24.684;2023-02-22T02:08:04;8.63;;;4.38;;
28078;SDS011;15388;42.238;24.684;2023-02-22T02:10:32;9.35;;;4.72;;
28078;SDS011;15388;42.238;24.684;2023-02-22T02:12:58;10.90;;;5.70;;
28078;SDS011;15388;42.238;24.684;2023-02-22T02:15:31;9.70;;;5.05;;
28078;SDS011;15388;42.238;24.684;2023-02-22T02:18:02;10.48;;;4.82;;
28078;SDS011;15388;42.238;24.684;2023-02-22T02:20:35;15.98;;;6.45;;
28078;SDS011;15388;42.238;24.684;2023-02-22T02:38:31;6.88;;;4.57;;
28078;SDS011;15388;42.238;24.684;2023-02-22T02:45:50;8.18;;;4.15;;
28078;SDS011;15388;42.238;24.684;2023-02-22T02:48:19;6.00;;;4.05;;
28078;SDS011;15388;42.238;24.684;2023-02-22T02:50:47;9.18;;;4.65;;
28078;SDS011;15388;42.238;24.684;2023-02-22T02:53:14;10.13;;;5.10;;
28078;SDS011;15388;42.238;24.684;2023-02-22T02:55:42;8.98;;;4.53;;
28078;SDS011;15388;42.238;24.684;2023-02-22T02:58:07;7.68;;;4.80;;
28078;SDS011;15388;42.238;24.684;2023-02-22T03:00:34;8.43;;;5.45;;
28078;SDS011;15388;42.238;24.684;2023-02-22T03:13:23;10.95;;;5.07;;
28078;SDS011;15388;42.238;24.684;2023-02-22T03:16:08;11.27;;;4.97;;
28078;SDS011;15388;42.238;24.684;2023-02-22T03:21:02;9.75;;;5.65;;
28078;SDS011;15388;42.238;24.684;2023-02-22T03:26:00;9.70;;;5.03;;
28078;SDS011;15388;42.238;24.684;2023-02-22T03:28:27;8.20;;;5.50;;
28078;SDS011;15388;42.238;24.684;2023-02-22T03:30:55;8.38;;;4.97;;
28078;SDS011;15388;42.238;24.684;2023-02-22T03:33:25;7.75;;;4.57;;
28078;SDS011;15388;42.238;24.684;2023-02-22T03:35:58;9.23;;;5.30;;
28078;SDS011;15388;42.238;24.684;2023-02-22T03:38:26;8.75;;;6.10;;
28078;SDS011;15388;42.238;24.684;2023-02-22T03:40:52;9.57;;;5.70;;
28078;SDS011;15388;42.238;24.684;2023-02-22T03:43:23;5.47;;;4.47;;
28078;SDS011;15388;42.238;24.684;2023-02-22T03:45:49;10.80;;;5.72;;
28078;SDS011;15388;42.238;24.684;2023-02-22T03:48:34;8.77;;;5.18;;
28078;SDS011;15388;42.238;24.684;2023-02-22T03:51:01;7.03;;;4.72;;
28078;SDS011;15388;42.238;24.684;2023-02-22T03:53:28;7.93;;;5.18;;
28078;SDS011;15388;42.238;24.684;2023-02-22T03:55:54;7.85;;;4.90;;
28078;SDS011;15388;42.238;24.684;2023-02-22T03:58:21;17.27;;;9.95;;
28078;SDS011;15388;42.238;24.684;2023-02-22T04:00:48;35.08;;;19.52;;
28078;SDS011;15388;42.238;24.684;2023-02-22T04:03:17;8.63;;;5.78;;
28078;SDS011;15388;42.238;24.684;2023-02-22T04:05:42;8.75;;;4.32;;
28078;SDS011;15388;42.238;24.684;2023-02-22T04:08:07;8.93;;;4.50;;
28078;SDS011;15388;42.238;24.684;2023-02-22T04:10:32;8.70;;;3.85;;
28078;SDS011;15388;42.238;24.684;2023-02-22T04:12:58;13.35;;;7.53;;
28078;SDS011;15388;42.238;24.684;2023-02-22T04:15:23;12.88;;;5.00;;
28078;SDS011;15388;42.238;24.684;2023-02-22T04:17:49;8.27;;;4.22;;
28078;SDS011;15388;42.238;24.684;2023-02-22T04:20:16;7.50;;;4.40;;
28078;SDS011;15388;42.238;24.684;2023-02-22T04:25:08;16.40;;;8.63;;
28078;SDS011;15388;42.238;24.684;2023-02-22T04:27:34;15.02;;;7.60;;
28078;SDS011;15388;42.238;24.684;2023-02-22T04:29:59;6.60;;;3.85;;
28078;SDS011;15388;42.238;24.684;2023-02-22T04:32:24;9.07;;;4.45;;
28078;SDS011;15388;42.238;24.684;2023-02-22T04:34:49;8.15;;;4.50;;
28078;SDS011;15388;42.238;24.684;2023-02-22T04:37:15;8.63;;;3.92;;
28078;SDS011;15388;42.238;24.684;2023-02-22T04:39:40;7.75;;;4.45;;
28078;SDS011;15388;42.238;24.684;2023-02-22T04:42:05;8.30;;;4.38;;
28078;SDS011;15388;42.238;24.684;2023-02-22T04:44:31;8.23;;;4.55;;
28078;SDS011;15388;42.238;24.684;2023-02-22T04:46:56;7.07;;;3.85;;
28078;SDS011;15388;42.238;24.684;2023-02-22T04:49:21;9.60;;;4.38;;
28078;SDS011;15388;42.238;24.684;2023-02-22T04:51:48;6.30;;;3.53;;
28078;SDS011;15388;42.238;24.684;2023-02-22T04:54:14;7.07;;;4.03;;
28078;SDS011;15388;42.238;24.684;2023-02-22T04:56:41;6.07;;;4.25;;
28078;SDS011;15388;42.238;24.684;2023-02-22T04:59:06;25.35;;;12.55;;
28078;SDS011;15388;42.238;24.684;2023-02-22T05:01:32;69.30;;;31.42;;
28078;SDS011;15388;42.238;24.684;2023-02-22T05:03:58;51.30;;;30.80;;
28078;SDS011;15388;42.238;24.684;2023-02-22T05:06:23;14.23;;;7.80;;
28078;SDS011;15388;42.238;24.684;2023-02-22T05:08:49;7.00;;;3.88;;
28078;SDS011;15388;42.238;24.684;2023-02-22T05:11:14;4.57;;;3.60;;
28078;SDS011;15388;42.238;24.684;2023-02-22T05:13:39;7.85;;;3.78;;
28078;SDS011;15388;42.238;24.684;2023-02-22T05:16:04;6.78;;;4.00;;
28078;SDS011;15388;42.238;24.684;2023-02-22T05:18:30;7.50;;;3.83;;
28078;SDS011;15388;42.238;24.684;2023-02-22T05:20:55;10.30;;;4.50;;
28078;SDS011;15388;42.238;24.684;2023-02-22T05:23:20;12.93;;;4.70;;
28078;SDS011;15388;42.238;24.684;2023-02-22T05:25:45;4.97;;;3.55;;
28078;SDS011;15388;42.238;24.684;2023-02-22T05:28:12;6.68;;;3.58;;
28078;SDS011;15388;42.238;24.684;2023-02-22T05:30:38;7.38;;;3.75;;
28078;SDS011;15388;42.238;24.684;2023-02-22T05:33:06;6.07;;;3.97;;
28078;SDS011;15388;42.238;24.684;2023-02-22T05:35:32;10.20;;;4.93;;
28078;SDS011;15388;42.238;24.684;2023-02-22T05:37:57;8.98;;;5.00;;
28078;SDS011;15388;42.238;24.684;2023-02-22T05:40:25;6.28;;;4.57;;
28078;SDS011;15388;42.238;24.684;2023-02-22T05:42:51;85.10;;;47.60;;
28078;SDS011;15388;42.238;24.684;2023-02-22T05:45:18;52.92;;;29.45;;
28078;SDS011;15388;42.238;24.684;2023-02-22T05:47:43;11.30;;;6.88;;
28078;SDS011;15388;42.238;24.684;2023-02-22T05:50:09;9.35;;;6.28;;
28078;SDS011;15388;42.238;24.684;2023-02-22T05:52:35;6.72;;;4.88;;
28078;SDS011;15388;42.238;24.684;2023-02-22T05:55:00;13.40;;;7.80;;
28078;SDS011;15388;42.238;24.684;2023-02-22T05:57:25;9.93;;;6.65;;
28078;SDS011;15388;42.238;24.684;2023-02-22T05:59:51;10.73;;;5.90;;
28078;SDS011;15388;42.238;24.684;2023-02-22T06:02:16;7.45;;;4.15;;
28078;SDS011;15388;42.238;24.684;2023-02-22T06:04:44;11.85;;;9.27;;
28078;SDS011;15388;42.238;24.684;2023-02-22T06:07:10;6.80;;;4.07;;
28078;SDS011;15388;42.238;24.684;2023-02-22T06:09:35;10.80;;;5.00;;
28078;SDS011;15388;42.238;24.684;2023-02-22T06:12:00;7.28;;;4.53;;
28078;SDS011;15388;42.238;24.684;2023-02-22T06:14:25;11.65;;;7.60;;
28078;SDS011;15388;42.238;24.684;2023-02-22T06:16:54;16.77;;;10.35;;
28078;SDS011;15388;42.238;24.684;2023-02-22T06:19:20;18.98;;;9.88;;
28078;SDS011;15388;42.238;24.684;2023-02-22T06:21:52;41.58;;;18.95;;
28078;SDS011;15388;42.238;24.684;2023-02-22T06:24:18;28.08;;;14.98;;
28078;SDS011;15388;42.238;24.684;2023-02-22T06:26:43;41.70;;;17.58;;
28078;SDS011;15388;42.238;24.684;2023-02-22T06:29:08;95.85;;;43.20;;
28078;SDS011;15388;42.238;24.684;2023-02-22T06:31:34;68.70;;;27.13;;
28078;SDS011;15388;42.238;24.684;2023-02-22T06:34:00;21.20;;;10.77;;
28078;SDS011;15388;42.238;24.684;2023-02-22T06:36:25;24.30;;;8.70;;
28078;SDS011;15388;42.238;24.684;2023-02-22T06:38:50;22.33;;;8.98;;
28078;SDS011;15388;42.238;24.684;2023-02-22T06:41:16;11.82;;;6.75;;
28078;SDS011;15388;42.238;24.684;2023-02-22T06:43:41;17.60;;;6.38;;
28078;SDS011;15388;42.238;24.684;2023-02-22T06:46:09;14.93;;;5.20;;
28078;SDS011;15388;42.238;24.684;2023-02-22T06:48:38;23.88;;;12.60;;
28078;SDS011;15388;42.238;24.684;2023-02-22T06:51:04;18.83;;;9.73;;
28078;SDS011;15388;42.238;24.684;2023-02-22T06:53:32;11.05;;;6.25;;
28078;SDS011;15388;42.238;24.684;2023-02-22T06:55:57;7.53;;;4.10;;
28078;SDS011;15388;42.238;24.684;2023-02-22T06:58:22;8.10;;;3.85;;
28078;SDS011;15388;42.238;24.684;2023-02-22T07:00:47;5.25;;;3.40;;
28078;SDS011;15388;42.238;24.684;2023-02-22T07:03:13;6.22;;;3.72;;
28078;SDS011;15388;42.238;24.684;2023-02-22T07:05:38;5.45;;;3.88;;
28078;SDS011;15388;42.238;24.684;2023-02-22T07:08:05;7.10;;;3.22;;
28078;SDS011;15388;42.238;24.684;2023-02-22T07:10:31;11.02;;;3.95;;
28078;SDS011;15388;42.238;24.684;2023-02-22T07:12:57;7.67;;;3.13;;
28078;SDS011;15388;42.238;24.684;2023-02-22T07:15:23;8.05;;;3.70;;
28078;SDS011;15388;42.238;24.684;2023-02-22T07:17:49;9.85;;;3.25;;
28078;SDS011;15388;42.238;24.684;2023-02-22T07:20:15;8.35;;;4.22;;
28078;SDS011;15388;42.238;24.684;2023-02-22T07:22:41;6.65;;;3.78;;
28078;SDS011;15388;42.238;24.684;2023-02-22T07:25:07;10.45;;;3.83;;
28078;SDS011;15388;42.238;24.684;2023-02-22T07:27:34;8.23;;;3.92;;
28078;SDS011;15388;42.238;24.684;2023-02-22T07:30:00;12.45;;;6.85;;
28078;SDS011;15388;42.238;24.684;2023-02-22T07:32:25;8.05;;;4.03;;
28078;SDS011;15388;42.238;24.684;2023-02-22T07:34:50;12.02;;;3.58;;
28078;SDS011;15388;42.238;24.684;2023-02-22T07:37:15;5.60;;;3.53;;
28078;SDS011;15388;42.238;24.684;2023-02-22T07:39:41;6.25;;;3.25;;
28078;SDS011;15388;42.238;24.684;2023-02-22T07:42:07;5.57;;;3.03;;
28078;SDS011;15388;42.238;24.684;2023-02-22T07:44:33;5.90;;;3.28;;
28078;SDS011;15388;42.238;24.684;2023-02-22T07:46:58;5.20;;;3.42;;
28078;SDS011;15388;42.238;24.684;2023-02-22T07:49:23;11.05;;;2.88;;
28078;SDS011;15388;42.238;24.684;2023-02-22T07:51:48;3.42;;;2.25;;
28078;SDS011;15388;42.238;24.684;2023-02-22T07:54:14;3.10;;;2.53;;
28078;SDS011;15388;42.238;24.684;2023-02-22T07:56:48;15.20;;;3.38;;
28078;SDS011;15388;42.238;24.684;2023-02-22T07:59:14;10.88;;;4.60;;
28078;SDS011;15388;42.238;24.684;2023-02-22T08:01:39;21.58;;;4.47;;
28078;SDS011;15388;42.238;24.684;2023-02-22T08:04:04;3.85;;;2.10;;
28078;SDS011;15388;42.238;24.684;2023-02-22T08:06:30;7.28;;;3.25;;
28078;SDS011;15388;42.238;24.684;2023-02-22T08:08:56;10.27;;;3.85;;
28078;SDS011;15388;42.238;24.684;2023-02-22T08:11:21;5.80;;;2.10;;
28078;SDS011;15388;42.238;24.684;2023-02-22T08:13:46;22.17;;;4.47;;
28078;SDS011;15388;42.238;24.684;2023-02-22T08:16:12;5.65;;;2.20;;
28078;SDS011;15388;42.238;24.684;2023-02-22T08:18:37;7.72;;;1.90;;
28078;SDS011;15388;42.238;24.684;2023-02-22T08:21:03;5.35;;;2.20;;
28078;SDS011;15388;42.238;24.684;2023-02-22T08:23:28;2.72;;;2.17;;
28078;SDS011;15388;42.238;24.684;2023-02-22T08:25:54;3.42;;;1.60;;
28078;SDS011;15388;42.238;24.684;2023-02-22T08:28:20;6.45;;;2.90;;
28078;SDS011;15388;42.238;24.684;2023-02-22T08:30:47;4.95;;;2.00;;
28078;SDS011;15388;42.238;24.684;2023-02-22T08:33:13;2.30;;;1.77;;
28078;SDS011;15388;42.238;24.684;2023-02-22T08:35:39;6.43;;;2.10;;
28078;SDS011;15388;42.238;24.684;2023-02-22T08:38:06;4.80;;;2.67;;
28078;SDS011;15388;42.238;24.684;2023-02-22T08:40:35;6.95;;;4.13;;
28078;SDS011;15388;42.238;24.684;2023-02-22T08:43:00;2.83;;;2.42;;
28078;SDS011;15388;42.238;24.684;2023-02-22T08:45:26;4.53;;;1.75;;
28078;SDS011;15388;42.238;24.684;2023-02-22T08:47:51;5.57;;;2.10;;
28078;SDS011;15388;42.238;24.684;2023-02-22T08:50:21;2.37;;;1.70;;
28078;SDS011;15388;42.238;24.684;2023-02-22T08:52:48;2.88;;;1.80;;
28078;SDS011;15388;42.238;24.684;2023-02-22T08:55:13;6.40;;;1.90;;
28078;SDS011;15388;42.238;24.684;2023-02-22T08:57:39;2.33;;;1.83;;
28078;SDS011;15388;42.238;24.684;2023-02-22T09:00:04;4.30;;;2.42;;
28078;SDS011;15388;42.238;24.684;2023-02-22T09:02:29;10.82;;;3.15;;
28078;SDS011;15388;42.238;24.684;2023-02-22T09:04:55;5.40;;;2.20;;
28078;SDS011;15388;42.238;24.684;2023-02-22T09:07:20;4.50;;;2.43;;
28078;SDS011;15388;42.238;24.684;2023-02-22T09:09:45;5.80;;;2.77;;
28078;SDS011;15388;42.238;24.684;2023-02-22T09:12:10;2.72;;;2.50;;
28078;SDS011;15388;42.238;24.684;2023-02-22T09:14:36;3.50;;;1.60;;
28078;SDS011;15388;42.238;24.684;2023-02-22T09:17:01;2.47;;;1.90;;
28078;SDS011;15388;42.238;24.684;2023-02-22T09:19:26;2.88;;;1.67;;
28078;SDS011;15388;42.238;24.684;2023-02-22T09:21:52;2.70;;;2.03;;
28078;SDS011;15388;42.238;24.684;2023-02-22T09:24:17;4.05;;;2.60;;
28078;SDS011;15388;42.238;24.684;2023-02-22T09:26:45;4.93;;;3.83;;
28078;SDS011;15388;42.238;24.684;2023-02-22T09:29:11;8.63;;;4.05;;
28078;SDS011;15388;42.238;24.684;2023-02-22T09:31:39;5.22;;;3.17;;
28078;SDS011;15388;42.238;24.684;2023-02-22T09:34:05;5.22;;;3.45;;
28078;SDS011;15388;42.238;24.684;2023-02-22T09:36:38;3.33;;;2.33;;
28078;SDS011;15388;42.238;24.684;2023-02-22T09:39:03;3.67;;;2.13;;
28078;SDS011;15388;42.238;24.684;2023-02-22T09:41:31;6.15;;;3.22;;
28078;SDS011;15388;42.238;24.684;2023-02-22T09:46:43;3.33;;;2.35;;
28078;SDS011;15388;42.238;24.684;2023-02-22T09:52:00;3.72;;;2.40;;
28078;SDS011;15388;42.238;24.684;2023-02-22T09:54:32;3.67;;;2.38;;
28078;SDS011;15388;42.238;24.684;2023-02-22T09:56:59;4.70;;;2.72;;
28078;SDS011;15388;42.238;24.684;2023-02-22T09:59:47;5.70;;;2.15;;
28078;SDS011;15388;42.238;24.684;2023-02-22T10:02:25;3.03;;;1.80;;
28078;SDS011;15388;42.238;24.684;2023-02-22T10:04:54;2.75;;;1.63;;
28078;SDS011;15388;42.238;24.684;2023-02-22T10:07:31;4.47;;;2.20;;
28078;SDS011;15388;42.238;24.684;2023-02-22T10:09:57;23.23;;;14.95;;
28078;SDS011;15388;42.238;24.684;2023-02-22T10:25:11;3.50;;;2.03;;
28078;SDS011;15388;42.238;24.684;2023-02-22T10:27:38;2.42;;;1.83;;
28078;SDS011;15388;42.238;24.684;2023-02-22T10:30:06;1.88;;;1.50;;
28078;SDS011;15388;42.238;24.684;2023-02-22T10:32:40;1.42;;;1.10;;
28078;SDS011;15388;42.238;24.684;2023-02-22T10:35:12;4.03;;;1.15;;
28078;SDS011;15388;42.238;24.684;2023-02-22T10:37:42;4.18;;;1.48;;
28078;SDS011;15388;42.238;24.684;2023-02-22T10:40:15;16.88;;;2.30;;
28078;SDS011;15388;42.238;24.684;2023-02-22T10:42:41;4.30;;;2.33;;
28078;SDS011;15388;42.238;24.684;2023-02-22T10:45:17;2.40;;;1.50;;
28078;SDS011;15388;42.238;24.684;2023-02-22T10:47:43;4.13;;;1.75;;
28078;SDS011;15388;42.238;24.684;2023-02-22T10:50:11;3.67;;;1.63;;
28078;SDS011;15388;42.238;24.684;2023-02-22T10:52:36;2.65;;;1.55;;
28078;SDS011;15388;42.238;24.684;2023-02-22T10:55:02;33.73;;;4.50;;
28078;SDS011;15388;42.238;24.684;2023-02-22T10:57:31;2.85;;;1.25;;
28078;SDS011;15388;42.238;24.684;2023-02-22T11:00:11;2.22;;;1.63;;
28078;SDS011;15388;42.238;24.684;2023-02-22T11:02:37;1.98;;;1.33;;
28078;SDS011;15388;42.238;24.684;2023-02-22T11:05:03;3.05;;;1.33;;
28078;SDS011;15388;42.238;24.684;2023-02-22T11:07:30;3.08;;;1.70;;
28078;SDS011;15388;42.238;24.684;2023-02-22T11:09:59;1.80;;;1.52;;
28078;SDS011;15388;42.238;24.684;2023-02-22T11:12:29;2.17;;;1.38;;
28078;SDS011;15388;42.238;24.684;2023-02-22T11:14:55;2.58;;;1.65;;
28078;SDS011;15388;42.238;24.684;2023-02-22T11:17:31;5.20;;;1.75;;
28078;SDS011;15388;42.238;24.684;2023-02-22T11:19:57;2.13;;;1.40;;
28078;SDS011;15388;42.238;24.684;2023-02-22T11:22:28;2.40;;;1.90;;
28078;SDS011;15388;42.238;24.684;2023-02-22T11:24:57;2.47;;;2.28;;
28078;SDS011;15388;42.238;24.684;2023-02-22T11:27:27;2.15;;;1.45;;
28078;SDS011;15388;42.238;24.684;2023-02-22T11:29:57;2.45;;;1.70;;
28078;SDS011;15388;42.238;24.684;2023-02-22T11:32:30;6.75;;;1.50;;
28078;SDS011;15388;42.238;24.684;2023-02-22T11:34:55;5.10;;;1.88;;
28078;SDS011;15388;42.238;24.684;2023-02-22T11:37:43;1.60;;;1.27;;
28078;SDS011;15388;42.238;24.684;2023-02-22T11:40:13;2.03;;;1.30;;
28078;SDS011;15388;42.238;24.684;2023-02-22T11:42:41;1.67;;;1.27;;
28078;SDS011;15388;42.238;24.684;2023-02-22T11:45:08;1.87;;;1.40;;
28078;SDS011;15388;42.238;24.684;2023-02-22T11:47:34;5.20;;;2.92;;
28078;SDS011;15388;42.238;24.684;2023-02-22T11:50:00;11.23;;;2.17;;
28078;SDS011;15388;42.238;24.684;2023-02-22T11:52:28;2.90;;;1.52;;
28078;SDS011;15388;42.238;24.684;2023-02-22T12:00:21;1.80;;;1.55;;
28078;SDS011;15388;42.238;24.684;2023-02-22T12:11:38;1.70;;;1.50;;
28078;SDS011;15388;42.238;24.684;2023-02-22T12:21:06;2.43;;;1.33;;
28078;SDS011;15388;42.238;24.684;2023-02-22T12:26:00;2.03;;;1.65;;
28078;SDS011;15388;42.238;24.684;2023-02-22T12:28:32;1.20;;;1.10;;
28078;SDS011;15388;42.238;24.684;2023-02-22T12:33:45;3.13;;;1.52;;
28078;SDS011;15388;42.238;24.684;2023-02-22T12:36:14;2.42;;;2.22;;
28078;SDS011;15388;42.238;24.684;2023-02-22T12:38:41;2.67;;;1.30;;
28078;SDS011;15388;42.238;24.684;2023-02-22T12:41:13;1.58;;;1.20;;
28078;SDS011;15388;42.238;24.684;2023-02-22T12:51:43;2.30;;;1.48;;
28078;SDS011;15388;42.238;24.684;2023-02-22T12:59:28;2.25;;;1.15;;
28078;SDS011;15388;42.238;24.684;2023-02-22T13:01:58;2.53;;;1.45;;
28078;SDS011;15388;42.238;24.684;2023-02-22T13:04:24;2.20;;;1.50;;
28078;SDS011;15388;42.238;24.684;2023-02-22T13:09:41;2.08;;;1.42;;
28078;SDS011;15388;42.238;24.684;2023-02-22T13:17:44;2.85;;;1.40;;
28078;SDS011;15388;42.238;24.684;2023-02-22T13:20:13;3.85;;;1.70;;
28078;SDS011;15388;42.238;24.684;2023-02-22T13:25:43;1.55;;;1.13;;
28078;SDS011;15388;42.238;24.684;2023-02-22T13:45:41;1.23;;;1.10;;
28078;SDS011;15388;42.238;24.684;2023-02-22T13:53:10;2.23;;;1.50;;
28078;SDS011;15388;42.238;24.684;2023-02-22T13:55:36;1.67;;;1.40;;
28078;SDS011;15388;42.238;24.684;2023-02-22T13:58:09;2.60;;;1.77;;
28078;SDS011;15388;42.238;24.684;2023-02-22T14:00:43;3.30;;;1.77;;
28078;SDS011;15388;42.238;24.684;2023-02-22T14:08:37;7.15;;;2.05;;
28078;SDS011;15388;42.238;24.684;2023-02-22T14:13:17;4.83;;;2.17;;
28078;SDS011;15388;42.238;24.684;2023-02-22T14:18:27;5.28;;;1.52;;
28078;SDS011;15388;42.238;24.684;2023-02-22T14:21:09;3.03;;;1.40;;
28078;SDS011;15388;42.238;24.684;2023-02-22T14:23:36;2.10;;;1.30;;
28078;SDS011;15388;42.238;24.684;2023-02-22T14:31:30;17.83;;;3.75;;
28078;SDS011;15388;42.238;24.684;2023-02-22T14:34:12;6.80;;;1.75;;
28078;SDS011;15388;42.238;24.684;2023-02-22T14:36:43;1.70;;;1.15;;
28078;SDS011;15388;42.238;24.684;2023-02-22T14:39:18;3.88;;;1.45;;
28078;SDS011;15388;42.238;24.684;2023-02-22T14:41:52;11.65;;;2.75;;
28078;SDS011;15388;42.238;24.684;2023-02-22T14:44:20;4.10;;;1.45;;
28078;SDS011;15388;42.238;24.684;2023-02-22T14:46:46;2.33;;;1.45;;
28078;SDS011;15388;42.238;24.684;2023-02-22T14:49:14;0.85;;;0.77;;
28078;SDS011;15388;42.238;24.684;2023-02-22T14:51:43;5.80;;;1.55;;
28078;SDS011;15388;42.238;24.684;2023-02-22T14:54:34;3.65;;;1.63;;
28078;SDS011;15388;42.238;24.684;2023-02-22T14:57:02;5.88;;;1.70;;
28078;SDS011;15388;42.238;24.684;2023-02-22T15:00:13;23.38;;;8.73;;
28078;SDS011;15388;42.238;24.684;2023-02-22T15:02:50;11.88;;;4.05;;
28078;SDS011;15388;42.238;24.684;2023-02-22T15:05:21;36.45;;;11.48;;
28078;SDS011;15388;42.238;24.684;2023-02-22T15:07:56;18.60;;;10.63;;
28078;SDS011;15388;42.238;24.684;2023-02-22T15:10:23;17.25;;;3.63;;
28078;SDS011;15388;42.238;24.684;2023-02-22T15:12:50;11.02;;;2.47;;
28078;SDS011;15388;42.238;24.684;2023-02-22T15:15:16;7.65;;;3.35;;
28078;SDS011;15388;42.238;24.684;2023-02-22T15:17:45;1.88;;;1.75;;
28078;SDS011;15388;42.238;24.684;2023-02-22T15:20:11;3.35;;;2.30;;
28078;SDS011;15388;42.238;24.684;2023-02-22T15:22:40;5.28;;;1.67;;
28078;SDS011;15388;42.238;24.684;2023-02-22T15:25:06;19.63;;;3.17;;
28078;SDS011;15388;42.238;24.684;2023-02-22T15:27:35;15.77;;;2.28;;
28078;SDS011;15388;42.238;24.684;2023-02-22T15:30:08;3.78;;;1.65;;
28078;SDS011;15388;42.238;24.684;2023-02-22T15:32:39;4.15;;;2.00;;
28078;SDS011;15388;42.238;24.684;2023-02-22T15:35:11;3.35;;;1.58;;
28078;SDS011;15388;42.238;24.684;2023-02-22T15:37:36;12.52;;;2.42;;
28078;SDS011;15388;42.238;24.684;2023-02-22T15:40:05;6.60;;;1.83;;
28078;SDS011;15388;42.238;24.684;2023-02-22T15:42:31;17.83;;;3.70;;
28078;SDS011;15388;42.238;24.684;2023-02-22T15:44:56;15.73;;;3.15;;
28078;SDS011;15388;42.238;24.684;2023-02-22T15:47:22;13.95;;;3.88;;
28078;SDS011;15388;42.238;24.684;2023-02-22T15:52:54;5.18;;;1.77;;
28078;SDS011;15388;42.238;24.684;2023-02-22T15:55:23;4.47;;;2.15;;
28078;SDS011;15388;42.238;24.684;2023-02-22T15:57:49;10.88;;;3.22;;
28078;SDS011;15388;42.238;24.684;2023-02-22T16:00:25;28.85;;;3.72;;
28078;SDS011;15388;42.238;24.684;2023-02-22T16:02:57;16.70;;;2.92;;
28078;SDS011;15388;42.238;24.684;2023-02-22T16:05:27;12.73;;;3.60;;
28078;SDS011;15388;42.238;24.684;2023-02-22T16:07:55;9.90;;;3.35;;
28078;SDS011;15388;42.238;24.684;2023-02-22T16:10:22;10.73;;;2.92;;
28078;SDS011;15388;42.238;24.684;2023-02-22T16:12:48;8.57;;;2.30;;
28078;SDS011;15388;42.238;24.684;2023-02-22T16:15:16;14.70;;;6.93;;
28078;SDS011;15388;42.238;24.684;2023-02-22T16:17:41;59.60;;;9.27;;
28078;SDS011;15388;42.238;24.684;2023-02-22T16:22:35;13.63;;;3.67;;
28078;SDS011;15388;42.238;24.684;2023-02-22T16:25:11;57.53;;;19.75;;
28078;SDS011;15388;42.238;24.684;2023-02-22T16:27:41;9.75;;;4.60;;
28078;SDS011;15388;42.238;24.684;2023-02-22T16:32:46;15.10;;;4.22;;
28078;SDS011;15388;42.238;24.684;2023-02-22T16:35:11;33.53;;;5.40;;
28078;SDS011;15388;42.238;24.684;2023-02-22T16:40:18;17.83;;;8.95;;
28078;SDS011;15388;42.238;24.684;2023-02-22T16:42:46;18.63;;;8.07;;
28078;SDS011;15388;42.238;24.684;2023-02-22T16:45:14;10.85;;;6.20;;
28078;SDS011;15388;42.238;24.684;2023-02-22T16:47:39;11.52;;;8.18;;
28078;SDS011;15388;42.238;24.684;2023-02-22T16:50:05;8.75;;;6.78;;
28078;SDS011;15388;42.238;24.684;2023-02-22T16:52:30;10.02;;;6.00;;
28078;SDS011;15388;42.238;24.684;2023-02-22T16:54:55;14.55;;;5.95;;
28078;SDS011;15388;42.238;24.684;2023-02-22T16:57:21;9.02;;;5.72;;
28078;SDS011;15388;42.238;24.684;2023-02-22T16:59:46;16.10;;;6.32;;
28078;SDS011;15388;42.238;24.684;2023-02-22T17:04:42;42.63;;;25.73;;
28078;SDS011;15388;42.238;24.684;2023-02-22T17:07:19;27.55;;;17.23;;
28078;SDS011;15388;42.238;24.684;2023-02-22T17:09:47;20.38;;;13.25;;
28078;SDS011;15388;42.238;24.684;2023-02-22T17:14:40;27.77;;;14.50;;
28078;SDS011;15388;42.238;24.684;2023-02-22T17:17:08;20.27;;;14.07;;
28078;SDS011;15388;42.238;24.684;2023-02-22T17:19:35;26.17;;;14.40;;
28078;SDS011;15388;42.238;24.684;2023-02-22T17:22:01;43.25;;;23.05;;